Time;durP1;ratioP1;P1;durP2;ratioP2;P2;SDS_P1;SDS_P2;PMS_P1;PMS_P2;Temp;Humidity;BMP_temperature;BMP_pressure;BME280_temperature;BME280_humidity;BME280_pressure;Samples;Min_cycle;Max_cycle;Signal;HPM_P1;HPM_P2
2023/08/31 00:00:51;;;;;;;;;;;;;;;18.28;100.00;99013.03;4992510;28;19922;-83
2023/08/31 00:03:16;;;;;;;;;;;;;;;18.30;100.00;99016.34;4993896;28;19932;-82
2023/08/31 00:05:42;;;;;;;;;;;;;;;18.31;100.00;99011.81;4997075;28;20020;-82
2023/08/31 00:08:08;;;;;;;;;;;;;;;18.28;100.00;99012.22;4996456;28;19972;-82
2023/08/31 00:10:35;;;;;;;;;;;;;;;18.26;100.00;99015.09;4996559;28;20380;-82
2023/08/31 00:13:01;;;;;;;;;;;;;;;18.30;100.00;99016.34;4996436;28;19922;-82
2023/08/31 00:15:28;;;;;;;;;;;;;;;18.18;100.00;99015.31;4997122;28;19948;-82
2023/08/31 00:17:53;;;;;;;;;;;;;;;18.04;100.00;99021.66;4998833;28;20311;-82
2023/08/31 00:20:19;;;;;;;;;;;;;;;18.01;100.00;99022.06;4996624;28;20290;-82
2023/08/31 00:22:44;;;;;;;;;;;;;;;18.09;100.00;99024.53;4999049;28;19930;-82
2023/08/31 00:25:10;;;;;;;;;;;;;;;18.13;100.00;99028.44;4997349;28;19929;-80
2023/08/31 00:27:37;;;;;;;;;;;;;;;17.97;100.00;99020.81;5002121;28;19926;-80
2023/08/31 00:30:04;;;;;;;;;;;;;;;17.98;100.00;99022.44;4986117;28;19922;-82
2023/08/31 00:32:29;;;;;;;;;;;;;;;17.87;100.00;99025.72;5001017;28;19929;-79
2023/08/31 00:34:57;;;;;;;;;;;;;;;17.88;100.00;99030.03;4977389;28;20196;-82
2023/08/31 00:37:23;;;;;;;;;;;;;;;17.92;100.00;99023.25;4996154;28;20687;-82
2023/08/31 00:39:51;;;;;;;;;;;;;;;17.88;100.00;99030.88;4995150;28;19921;-81
2023/08/31 00:42:17;;;;;;;;;;;;;;;17.96;100.00;99030.69;4994764;28;20283;-81
2023/08/31 00:44:43;;;;;;;;;;;;;;;17.95;100.00;99029.03;4977058;28;20346;-82
2023/08/31 00:47:09;;;;;;;;;;;;;;;18.00;100.00;99028.41;4983504;28;19921;-82
2023/08/31 00:49:35;;;;;;;;;;;;;;;18.01;100.00;99027.41;4994223;28;19921;-82
2023/08/31 00:52:00;;;;;;;;;;;;;;;17.97;100.00;99039.50;4992845;28;20006;-82
2023/08/31 00:54:26;;;;;;;;;;;;;;;17.89;100.00;99042.38;4976724;28;19917;-82
2023/08/31 00:56:54;;;;;;;;;;;;;;;17.83;100.00;99041.31;4994354;28;20005;-82
2023/08/31 00:59:20;;;;;;;;;;;;;;;17.80;100.00;99038.22;4988482;28;20008;-83
2023/08/31 01:02:23;;;;;;;;;;;;;;;17.69;100.00;99038.81;4989426;28;19933;-82
2023/08/31 01:04:58;;;;;;;;;;;;;;;17.43;100.00;99035.00;4892622;29;19923;-82
2023/08/31 01:07:42;;;;;;;;;;;;;;;17.42;100.00;99033.38;4890868;29;19927;-82
2023/08/31 01:10:26;;;;;;;;;;;;;;;17.44;100.00;99046.47;4893186;29;19970;-82
2023/08/31 01:12:55;;;;;;;;;;;;;;;17.48;100.00;99045.09;4893184;29;19957;-81
2023/08/31 01:15:20;;;;;;;;;;;;;;;17.49;100.00;99044.88;4893546;29;20001;-83
2023/08/31 01:17:48;;;;;;;;;;;;;;;17.45;100.00;99042.78;4893221;29;19946;-83
2023/08/31 01:20:27;;;;;;;;;;;;;;;17.50;100.00;99041.16;4893091;29;19931;-82
2023/08/31 01:22:57;;;;;;;;;;;;;;;17.50;100.00;99051.00;4893628;29;20026;-82
2023/08/31 01:25:22;;;;;;;;;;;;;;;17.55;100.00;99060.06;4893749;29;19924;-82
2023/08/31 01:27:48;;;;;;;;;;;;;;;17.52;100.00;99055.16;4893231;29;19935;-82
2023/08/31 01:30:14;;;;;;;;;;;;;;;17.55;100.00;99061.94;4894277;29;19934;-83
2023/08/31 01:32:45;;;;;;;;;;;;;;;17.58;100.00;99059.69;4893091;29;19924;-82
2023/08/31 01:35:11;;;;;;;;;;;;;;;17.64;100.00;99065.28;4925768;28;19921;-81
2023/08/31 01:37:58;;;;;;;;;;;;;;;17.66;100.00;99066.72;4991071;28;19961;-83
2023/08/31 01:40:27;;;;;;;;;;;;;;;17.62;100.00;99064.63;4987782;28;19984;-83
2023/08/31 01:42:52;;;;;;;;;;;;;;;17.59;100.00;99065.84;4990852;28;20028;-83
2023/08/31 01:45:22;;;;;;;;;;;;;;;17.63;100.00;99074.28;4990466;28;19926;-82
2023/08/31 01:47:48;;;;;;;;;;;;;;;17.65;100.00;99075.75;4971080;28;19922;-84
2023/08/31 01:50:13;;;;;;;;;;;;;;;17.65;100.00;99081.09;4990534;28;19929;-83
2023/08/31 01:52:39;;;;;;;;;;;;;;;17.70;100.00;99083.97;4991054;28;19945;-84
2023/08/31 01:55:05;;;;;;;;;;;;;;;17.73;100.00;99072.09;4989440;28;19972;-84
2023/08/31 01:57:32;;;;;;;;;;;;;;;17.77;100.00;99078.66;4989577;28;19921;-82
2023/08/31 02:00:10;;;;;;;;;;;;;;;17.82;100.00;99081.56;4973959;28;20379;-83
2023/08/31 02:02:42;;;;;;;;;;;;;;;17.75;100.00;99083.38;4994944;28;19933;-84
2023/08/31 02:05:07;;;;;;;;;;;;;;;17.70;100.00;99077.81;4996757;28;19925;-83
2023/08/31 02:07:33;;;;;;;;;;;;;;;17.66;100.00;99082.75;4995056;28;19922;-83
2023/08/31 02:09:58;;;;;;;;;;;;;;;17.66;100.00;99081.91;4990922;28;19922;-83
2023/08/31 02:12:24;;;;;;;;;;;;;;;17.54;100.00;99095.78;4994693;28;19922;-83
2023/08/31 02:14:49;;;;;;;;;;;;;;;17.43;100.00;99092.88;4994966;28;19926;-82
2023/08/31 02:17:15;;;;;;;;;;;;;;;17.35;100.00;99093.84;4994703;28;20006;-82
2023/08/31 02:19:40;;;;;;;;;;;;;;;17.31;100.00;99095.28;4999424;28;19926;-84
2023/08/31 02:22:06;;;;;;;;;;;;;;;17.34;100.00;99094.03;5000080;28;19922;-83
2023/08/31 02:24:31;;;;;;;;;;;;;;;17.35;100.00;99091.19;4996637;28;19921;-83
2023/08/31 02:26:56;;;;;;;;;;;;;;;17.30;100.00;99095.47;4998407;28;19929;-82
2023/08/31 02:29:25;;;;;;;;;;;;;;;17.30;100.00;99093.63;4997649;28;19925;-80
2023/08/31 02:31:51;;;;;;;;;;;;;;;17.38;100.00;99088.09;4996736;28;19922;-81
2023/08/31 02:34:16;;;;;;;;;;;;;;;17.34;100.00;99089.53;4993835;28;19918;-81
2023/08/31 02:36:41;;;;;;;;;;;;;;;17.34;100.00;99094.84;4993400;28;20069;-82
2023/08/31 02:39:09;;;;;;;;;;;;;;;17.38;100.00;99095.28;4993598;28;19953;-83
2023/08/31 02:41:35;;;;;;;;;;;;;;;17.33;100.00;99095.88;4994195;28;19925;-82
2023/08/31 02:44:03;;;;;;;;;;;;;;;17.34;100.00;99100.19;4994000;28;19961;-81
2023/08/31 02:46:29;;;;;;;;;;;;;;;17.36;100.00;99103.50;4993291;28;19984;-82
2023/08/31 02:48:54;;;;;;;;;;;;;;;17.27;100.00;99104.66;4993902;28;19929;-81
2023/08/31 02:51:20;;;;;;;;;;;;;;;17.14;100.00;99107.28;4993251;28;19957;-81
2023/08/31 02:53:45;;;;;;;;;;;;;;;16.82;100.00;99115.84;4992084;28;19918;-79
2023/08/31 02:56:11;;;;;;;;;;;;;;;16.87;100.00;99118.75;4993628;28;19921;-82
2023/08/31 02:58:36;;;;;;;;;;;;;;;16.92;100.00;99118.97;4993721;28;19921;-81
2023/08/31 03:01:10;;;;;;;;;;;;;;;17.02;100.00;99116.81;4976013;28;19942;-82
2023/08/31 03:03:37;;;;;;;;;;;;;;;17.10;100.00;99116.66;4974783;28;20013;-80
2023/08/31 03:06:02;;;;;;;;;;;;;;;17.14;100.00;99120.59;4997368;28;20387;-81
2023/08/31 03:08:28;;;;;;;;;;;;;;;17.18;100.00;99111.19;4993319;28;19922;-80
2023/08/31 03:10:55;;;;;;;;;;;;;;;17.24;100.00;99118.41;4976164;28;19922;-81
2023/08/31 03:13:20;;;;;;;;;;;;;;;17.27;100.00;99120.66;4992349;28;20449;-81
2023/08/31 03:15:45;;;;;;;;;;;;;;;17.26;100.00;99124.34;4993455;28;20008;-82
2023/08/31 03:18:11;;;;;;;;;;;;;;;17.08;100.00;99121.38;4975716;28;19949;-81
2023/08/31 03:20:36;;;;;;;;;;;;;;;17.02;100.00;99119.50;4975948;28;20028;-81
2023/08/31 03:23:02;;;;;;;;;;;;;;;16.99;100.00;99126.03;4975451;28;19929;-81
2023/08/31 03:25:29;;;;;;;;;;;;;;;16.82;100.00;99124.66;4975862;28;19932;-81
2023/08/31 03:27:54;;;;;;;;;;;;;;;16.73;100.00;99118.63;4993383;28;20396;-81
2023/08/31 03:30:20;;;;;;;;;;;;;;;16.68;100.00;99126.38;4992821;28;19922;-81
2023/08/31 03:32:46;;;;;;;;;;;;;;;16.61;100.00;99120.16;4993286;28;19928;-81
2023/08/31 03:35:11;;;;;;;;;;;;;;;16.52;100.00;99126.63;4975457;28;19933;-81
2023/08/31 03:37:37;;;;;;;;;;;;;;;16.37;100.00;99123.22;4994080;28;20456;-81
2023/08/31 03:40:05;;;;;;;;;;;;;;;16.17;100.00;99125.66;4976165;28;19921;-80
2023/08/31 03:42:31;;;;;;;;;;;;;;;16.14;100.00;99133.22;4976468;28;19966;-80
2023/08/31 03:44:56;;;;;;;;;;;;;;;16.25;100.00;99132.72;4976218;28;19922;-81
2023/08/31 03:47:23;;;;;;;;;;;;;;;16.38;100.00;99130.16;4993278;28;19922;-82
2023/08/31 03:49:48;;;;;;;;;;;;;;;16.49;100.00;99127.03;4977344;28;19933;-80
2023/08/31 03:52:14;;;;;;;;;;;;;;;16.60;100.00;99133.69;4977137;28;19984;-81
2023/08/31 03:54:39;;;;;;;;;;;;;;;16.64;100.00;99132.28;4978462;28;20417;-80
2023/08/31 03:57:05;;;;;;;;;;;;;;;16.69;100.00;99141.34;4995515;28;19921;-81
2023/08/31 03:59:30;;;;;;;;;;;;;;;16.74;100.00;99143.44;4996581;28;20420;-81
2023/08/31 04:01:56;;;;;;;;;;;;;;;16.75;100.00;99142.44;4978386;28;20004;-80
2023/08/31 04:04:22;;;;;;;;;;;;;;;16.76;100.00;99144.91;4996026;28;19941;-80
2023/08/31 04:06:47;;;;;;;;;;;;;;;16.82;100.00;99147.81;4996857;28;20008;-80
2023/08/31 04:09:12;;;;;;;;;;;;;;;16.87;100.00;99151.56;4997473;28;19924;-81
2023/08/31 04:11:38;;;;;;;;;;;;;;;16.87;100.00;99145.41;4998129;28;19925;-80
2023/08/31 04:14:03;;;;;;;;;;;;;;;16.80;100.00;99150.66;4978742;28;20017;-80
2023/08/31 04:16:29;;;;;;;;;;;;;;;16.76;100.00;99163.56;4997237;28;19917;-81
2023/08/31 04:18:55;;;;;;;;;;;;;;;16.64;100.00;99173.09;4996907;28;19929;-80
2023/08/31 04:21:20;;;;;;;;;;;;;;;16.60;100.00;99171.00;4996921;28;19952;-80
2023/08/31 04:23:45;;;;;;;;;;;;;;;16.53;100.00;99170.06;4997911;28;19929;-80
2023/08/31 04:26:14;;;;;;;;;;;;;;;16.58;100.00;99173.81;4997035;28;19961;-80
2023/08/31 04:28:41;;;;;;;;;;;;;;;16.46;100.00;99180.66;4998651;28;19941;-81
2023/08/31 04:31:07;;;;;;;;;;;;;;;16.39;100.00;99175.25;4977830;28;19922;-81
2023/08/31 04:33:34;;;;;;;;;;;;;;;16.27;100.00;99181.25;4997408;28;20497;-81
2023/08/31 04:35:59;;;;;;;;;;;;;;;16.28;100.00;99182.91;4996897;28;19942;-80
2023/08/31 04:38:24;;;;;;;;;;;;;;;16.29;100.00;99181.91;4997920;28;19922;-80
2023/08/31 04:40:50;;;;;;;;;;;;;;;16.36;100.00;99188.13;4997193;28;19924;-81
2023/08/31 04:43:15;;;;;;;;;;;;;;;16.46;100.00;99196.63;4996404;28;19980;-79
2023/08/31 04:45:41;;;;;;;;;;;;;;;16.47;100.00;99198.28;4996953;28;19929;-80
2023/08/31 04:48:06;;;;;;;;;;;;;;;16.48;100.00;99189.28;4995835;28;19929;-81
2023/08/31 04:50:32;;;;;;;;;;;;;;;16.48;100.00;99191.94;4978189;28;19995;-81
2023/08/31 04:52:58;;;;;;;;;;;;;;;16.48;100.00;99199.94;4994493;28;20404;-82
2023/08/31 04:55:23;;;;;;;;;;;;;;;16.53;100.00;99197.53;4977978;28;19950;-82
2023/08/31 04:57:49;;;;;;;;;;;;;;;16.52;100.00;99214.53;4978407;28;20356;-79
2023/08/31 05:00:15;;;;;;;;;;;;;;;16.58;100.00;99210.28;4995717;28;19922;-80
2023/08/31 05:02:40;;;;;;;;;;;;;;;16.62;100.00;99215.06;4993825;28;19922;-82
2023/08/31 05:05:06;;;;;;;;;;;;;;;16.54;100.00;99220.50;4994778;28;20025;-81
2023/08/31 05:07:31;;;;;;;;;;;;;;;16.49;100.00;99230.06;4993693;28;19922;-81
2023/08/31 05:09:56;;;;;;;;;;;;;;;16.46;100.00;99231.25;4993018;28;19921;-81
2023/08/31 05:12:22;;;;;;;;;;;;;;;16.38;100.00;99232.19;4991918;28;20090;-81
2023/08/31 05:14:47;;;;;;;;;;;;;;;16.35;100.00;99231.75;4974195;28;20307;-79
2023/08/31 05:17:13;;;;;;;;;;;;;;;16.23;100.00;99249.22;4991044;28;20303;-81
2023/08/31 05:19:38;;;;;;;;;;;;;;;16.19;100.00;99242.63;4991519;28;19921;-80
2023/08/31 05:22:04;;;;;;;;;;;;;;;16.20;100.00;99254.94;4991392;28;19929;-81
2023/08/31 05:24:29;;;;;;;;;;;;;;;16.28;100.00;99257.47;4991246;28;20409;-80
2023/08/31 05:26:55;;;;;;;;;;;;;;;16.39;100.00;99259.66;4991747;28;20386;-81
2023/08/31 05:29:20;;;;;;;;;;;;;;;16.44;100.00;99267.88;4990934;28;20291;-79
2023/08/31 05:31:45;;;;;;;;;;;;;;;16.52;100.00;99267.78;4991523;28;20283;-81
2023/08/31 05:34:15;;;;;;;;;;;;;;;16.57;100.00;99268.06;4990501;28;19944;-83
2023/08/31 05:36:41;;;;;;;;;;;;;;;16.61;100.00;99261.34;4994087;28;19968;-83
2023/08/31 05:39:06;;;;;;;;;;;;;;;16.68;100.00;99264.94;4994917;28;19922;-82
2023/08/31 05:41:31;;;;;;;;;;;;;;;16.75;100.00;99265.00;4995337;28;19921;-83
2023/08/31 05:43:57;;;;;;;;;;;;;;;16.79;100.00;99272.41;4995108;28;19988;-82
2023/08/31 05:46:22;;;;;;;;;;;;;;;16.72;100.00;99276.88;4994848;28;20013;-83
2023/08/31 05:48:48;;;;;;;;;;;;;;;16.78;100.00;99281.44;4994658;28;19926;-80
2023/08/31 05:51:13;;;;;;;;;;;;;;;16.77;100.00;99279.78;4995084;28;20050;-79
2023/08/31 05:53:39;;;;;;;;;;;;;;;16.78;100.00;99286.78;4994758;28;20049;-80
2023/08/31 05:56:04;;;;;;;;;;;;;;;16.79;100.00;99288.41;4993756;28;19922;-80
2023/08/31 05:58:30;;;;;;;;;;;;;;;16.77;100.00;99298.44;4994254;28;19921;-79
2023/08/31 06:00:56;;;;;;;;;;;;;;;16.81;100.00;99301.53;4994397;28;19945;-81
2023/08/31 06:03:21;;;;;;;;;;;;;;;16.85;100.00;99307.34;4993974;28;19952;-80
2023/08/31 06:05:47;;;;;;;;;;;;;;;16.90;100.00;99305.75;4994376;28;20012;-81
2023/08/31 06:08:13;;;;;;;;;;;;;;;16.89;100.00;99311.28;4993703;28;19930;-80
2023/08/31 06:10:38;;;;;;;;;;;;;;;16.89;100.00;99313.94;4994019;28;19933;-81
2023/08/31 06:13:04;;;;;;;;;;;;;;;16.94;100.00;99311.53;4993557;28;19922;-82
2023/08/31 06:15:29;;;;;;;;;;;;;;;16.95;100.00;99313.19;4994227;28;19921;-82
2023/08/31 06:17:54;;;;;;;;;;;;;;;16.93;100.00;99309.88;4996207;28;19944;-81
2023/08/31 06:20:20;;;;;;;;;;;;;;;16.90;100.00;99316.41;4994044;28;19922;-80
2023/08/31 06:22:45;;;;;;;;;;;;;;;16.87;100.00;99321.28;4993988;28;19925;-81
2023/08/31 06:25:11;;;;;;;;;;;;;;;16.87;100.00;99327.44;4993715;28;19922;-82
2023/08/31 06:27:36;;;;;;;;;;;;;;;16.93;100.00;99331.19;4993735;28;19976;-81
2023/08/31 06:30:02;;;;;;;;;;;;;;;17.06;100.00;99332.16;4993795;28;20004;-80
2023/08/31 06:32:28;;;;;;;;;;;;;;;17.17;100.00;99330.81;4993704;28;20020;-80
2023/08/31 06:34:54;;;;;;;;;;;;;;;17.26;100.00;99334.22;4988671;28;20016;-81
2023/08/31 06:37:20;;;;;;;;;;;;;;;17.36;100.00;99335.53;4993356;28;19930;-79
2023/08/31 06:39:45;;;;;;;;;;;;;;;17.47;100.00;99340.34;4994048;28;20489;-75
2023/08/31 06:42:11;;;;;;;;;;;;;;;17.55;100.00;99339.41;4993018;28;20012;-75
2023/08/31 06:44:37;;;;;;;;;;;;;;;17.62;100.00;99336.78;4993632;28;19964;-75
2023/08/31 06:47:03;;;;;;;;;;;;;;;17.65;100.00;99341.75;4993419;28;19950;-75
2023/08/31 06:49:30;;;;;;;;;;;;;;;17.65;100.00;99349.75;4993462;28;19922;-75
2023/08/31 06:51:55;;;;;;;;;;;;;;;17.56;100.00;99349.03;4993689;28;20044;-75
2023/08/31 06:54:20;;;;;;;;;;;;;;;17.62;100.00;99355.47;4993665;28;19998;-75
2023/08/31 06:56:46;;;;;;;;;;;;;;;17.74;100.00;99356.59;4991611;28;19922;-74
2023/08/31 06:59:11;;;;;;;;;;;;;;;17.86;100.00;99365.72;4992229;28;19970;-73
2023/08/31 07:01:37;;;;;;;;;;;;;;;17.98;100.00;99369.50;4993767;28;19922;-76
2023/08/31 07:04:04;;;;;;;;;;;;;;;18.03;100.00;99372.41;4993187;28;20004;-75
2023/08/31 07:06:29;;;;;;;;;;;;;;;18.09;100.00;99366.28;4993635;28;20067;-75
2023/08/31 07:08:55;;;;;;;;;;;;;;;18.15;100.00;99370.84;4993597;28;20008;-74
2023/08/31 07:11:20;;;;;;;;;;;;;;;18.13;100.00;99367.56;4992899;28;20076;-79
2023/08/31 07:13:45;;;;;;;;;;;;;;;18.16;100.00;99367.16;4993337;28;19929;-75
2023/08/31 07:16:11;;;;;;;;;;;;;;;18.23;100.00;99373.38;4992083;28;19917;-76
2023/08/31 07:18:37;;;;;;;;;;;;;;;18.33;100.00;99373.84;4991191;28;19922;-75
2023/08/31 07:21:04;;;;;;;;;;;;;;;18.38;100.00;99376.75;4992947;28;19917;-75
2023/08/31 07:23:30;;;;;;;;;;;;;;;18.41;100.00;99376.38;4993174;28;19922;-75
2023/08/31 07:25:59;;;;;;;;;;;;;;;18.48;100.00;99386.25;4993141;28;19922;-76
2023/08/31 07:28:25;;;;;;;;;;;;;;;18.55;100.00;99387.16;4992459;28;19925;-75
2023/08/31 07:31:00;;;;;;;;;;;;;;;18.66;100.00;99375.91;4993097;28;19921;-76
2023/08/31 07:33:25;;;;;;;;;;;;;;;18.76;100.00;99379.03;4989214;28;19930;-77
2023/08/31 07:35:50;;;;;;;;;;;;;;;18.79;100.00;99386.66;4993309;28;19922;-77
2023/08/31 07:38:16;;;;;;;;;;;;;;;18.82;100.00;99391.59;4992575;28;19922;-76
2023/08/31 07:40:41;;;;;;;;;;;;;;;18.86;100.00;99394.69;4992700;28;19987;-76
2023/08/31 07:43:07;;;;;;;;;;;;;;;18.81;100.00;99397.97;4991765;28;19969;-75
2023/08/31 07:45:32;;;;;;;;;;;;;;;18.88;100.00;99396.16;4992396;28;19922;-75
2023/08/31 07:47:58;;;;;;;;;;;;;;;18.97;100.00;99400.28;4991325;28;19926;-76
2023/08/31 07:50:23;;;;;;;;;;;;;;;19.04;100.00;99403.81;4992701;28;20244;-75
2023/08/31 07:52:48;;;;;;;;;;;;;;;19.06;100.00;99407.13;4992357;28;19945;-75
2023/08/31 07:55:14;;;;;;;;;;;;;;;19.13;100.00;99407.13;4991924;28;19921;-76
2023/08/31 07:57:39;;;;;;;;;;;;;;;19.21;100.00;99413.13;4992048;28;19996;-76
2023/08/31 08:00:05;;;;;;;;;;;;;;;19.31;100.00;99411.91;4991202;28;20000;-74
2023/08/31 08:02:38;;;;;;;;;;;;;;;19.41;100.00;99421.19;4987005;28;20052;-76
2023/08/31 08:05:03;;;;;;;;;;;;;;;19.50;100.00;99413.81;4990071;28;20008;-76
2023/08/31 08:07:29;;;;;;;;;;;;;;;19.57;100.00;99420.00;4992323;28;19922;-77
2023/08/31 08:09:54;;;;;;;;;;;;;;;19.62;100.00;99417.53;4991840;28;19922;-75
2023/08/31 08:12:19;;;;;;;;;;;;;;;19.67;100.00;99431.16;4991464;28;19936;-77
2023/08/31 08:14:45;;;;;;;;;;;;;;;19.73;100.00;99422.31;4991888;28;19922;-76
2023/08/31 08:17:10;;;;;;;;;;;;;;;19.83;100.00;99414.69;4991347;28;19929;-77
2023/08/31 08:19:36;;;;;;;;;;;;;;;19.93;100.00;99420.47;4990756;28;19922;-76
2023/08/31 08:22:01;;;;;;;;;;;;;;;19.98;100.00;99423.34;4991820;28;20009;-76
2023/08/31 08:24:29;;;;;;;;;;;;;;;19.92;100.00;99423.34;4991451;28;19949;-76
2023/08/31 08:26:54;;;;;;;;;;;;;;;19.95;100.00;99418.41;4991668;28;20412;-75
2023/08/31 08:29:20;;;;;;;;;;;;;;;20.00;100.00;99432.00;4974467;28;19926;-76
2023/08/31 08:31:45;;;;;;;;;;;;;;;20.02;100.00;99429.94;4991649;28;19941;-76
2023/08/31 08:34:11;;;;;;;;;;;;;;;20.10;100.00;99428.06;4985643;28;19952;-76
2023/08/31 08:36:36;;;;;;;;;;;;;;;20.13;100.00;99430.34;4992020;28;20301;-75
2023/08/31 08:39:01;;;;;;;;;;;;;;;20.20;100.00;99433.84;4991195;28;20020;-77
2023/08/31 08:41:28;;;;;;;;;;;;;;;20.26;100.00;99441.06;4991748;28;19921;-77
2023/08/31 08:43:56;;;;;;;;;;;;;;;20.32;100.00;99445.63;4969503;28;19936;-78
2023/08/31 08:46:22;;;;;;;;;;;;;;;20.45;100.00;99445.59;4973282;28;20386;-78
2023/08/31 08:48:48;;;;;;;;;;;;;;;20.55;100.00;99445.16;4991221;28;19932;-76
2023/08/31 08:51:13;;;;;;;;;;;;;;;20.58;100.00;99440.19;4972771;28;19973;-78
2023/08/31 08:53:42;;;;;;;;;;;;;;;20.67;100.00;99441.63;4991437;28;19922;-78
2023/08/31 08:56:07;;;;;;;;;;;;;;;20.74;100.00;99445.09;4973608;28;20089;-78
2023/08/31 08:58:33;;;;;;;;;;;;;;;20.77;100.00;99444.69;4987718;28;20371;-77
2023/08/31 09:00:58;;;;;;;;;;;;;;;20.85;100.00;99447.13;4986003;28;19949;-77
2023/08/31 09:03:24;;;;;;;;;;;;;;;20.93;100.00;99437.19;4988004;28;19926;-77
2023/08/31 09:05:51;;;;;;;;;;;;;;;21.01;100.00;99445.03;4990987;28;19929;-76
2023/08/31 09:08:16;;;;;;;;;;;;;;;21.09;100.00;99444.75;4991064;28;20012;-77
2023/08/31 09:10:43;;;;;;;;;;;;;;;21.10;100.00;99444.56;4989416;28;20029;-77
2023/08/31 09:13:10;;;;;;;;;;;;;;;21.15;100.00;99446.63;4989865;28;19922;-77
2023/08/31 09:15:39;;;;;;;;;;;;;;;21.18;100.00;99440.84;4991303;28;20317;-76
2023/08/31 09:18:05;;;;;;;;;;;;;;;21.23;100.00;99446.41;4956562;28;19944;-77
2023/08/31 09:20:31;;;;;;;;;;;;;;;21.30;100.00;99447.19;4994386;28;20332;-77
2023/08/31 09:22:56;;;;;;;;;;;;;;;21.37;100.00;99429.19;4993299;28;19933;-77
2023/08/31 09:25:22;;;;;;;;;;;;;;;21.45;100.00;99442.34;4970462;28;19930;-76
2023/08/31 09:27:48;;;;;;;;;;;;;;;21.48;100.00;99447.28;4987711;28;19961;-80
2023/08/31 09:30:13;;;;;;;;;;;;;;;21.49;100.00;99443.56;4988254;28;20418;-76
2023/08/31 09:32:41;;;;;;;;;;;;;;;21.52;100.00;99442.31;4990754;28;20016;-76
2023/08/31 09:35:10;;;;;;;;;;;;;;;21.53;100.00;99439.41;4990779;28;20271;-76
2023/08/31 09:37:36;;;;;;;;;;;;;;;21.59;100.00;99427.81;4991985;28;20339;-77
2023/08/31 09:40:03;;;;;;;;;;;;;;;21.67;100.00;99428.59;4991140;28;20024;-77
2023/08/31 09:42:38;;;;;;;;;;;;;;;21.76;100.00;99432.66;4991654;28;19965;-77
2023/08/31 09:45:04;;;;;;;;;;;;;;;21.81;100.00;99430.94;4991624;28;19921;-78
2023/08/31 09:47:29;;;;;;;;;;;;;;;21.88;100.00;99430.91;4991025;28;20008;-78
2023/08/31 09:49:55;;;;;;;;;;;;;;;21.91;100.00;99425.09;4991009;28;20012;-77
2023/08/31 09:52:21;;;;;;;;;;;;;;;21.98;100.00;99425.88;4990911;28;19932;-78
2023/08/31 09:54:47;;;;;;;;;;;;;;;22.06;100.00;99428.31;4991189;28;19972;-78
2023/08/31 09:57:14;;;;;;;;;;;;;;;22.12;100.00;99422.06;4994177;28;20536;-78
2023/08/31 09:59:40;;;;;;;;;;;;;;;22.21;100.00;99426.09;4974326;28;19922;-78
2023/08/31 10:02:06;;;;;;;;;;;;;;;22.28;100.00;99426.84;4973748;28;19967;-78
2023/08/31 10:04:36;;;;;;;;;;;;;;;22.30;100.00;99424.78;4990078;28;20286;-78
2023/08/31 10:07:06;;;;;;;;;;;;;;;22.34;100.00;99420.59;4991148;28;19921;-79
2023/08/31 10:09:32;;;;;;;;;;;;;;;22.38;100.00;99421.00;4991875;28;20413;-78
2023/08/31 10:12:00;;;;;;;;;;;;;;;22.45;100.00;99416.34;4991482;28;19921;-78
2023/08/31 10:14:46;;;;;;;;;;;;;;;22.55;100.00;99410.47;4977057;28;19929;-78
2023/08/31 10:17:13;;;;;;;;;;;;;;;22.60;100.00;99414.13;4991540;28;19997;-80
2023/08/31 10:19:39;;;;;;;;;;;;;;;22.67;100.00;99416.75;4993596;28;20303;-84
2023/08/31 10:22:05;;;;;;;;;;;;;;;22.71;100.00;99415.25;4998568;28;20378;-83
2023/08/31 10:25:00;;;;;;;;;;;;;;;22.76;100.00;99412.75;4999252;28;20356;-83
2023/08/31 10:27:25;;;;;;;;;;;;;;;22.79;100.00;99406.94;4976024;28;20077;-83
2023/08/31 10:29:51;;;;;;;;;;;;;;;22.89;100.00;99396.44;4993519;28;19961;-82
2023/08/31 10:32:18;;;;;;;;;;;;;;;22.93;100.00;99403.00;4995196;28;19976;-82
2023/08/31 10:34:44;;;;;;;;;;;;;;;22.97;100.00;99401.53;4995712;28;19930;-83
2023/08/31 10:37:22;;;;;;;;;;;;;;;23.04;100.00;99396.84;4999064;28;19928;-84
2023/08/31 10:39:47;;;;;;;;;;;;;;;23.11;100.00;99407.53;5004680;28;19922;-83
2023/08/31 10:42:13;;;;;;;;;;;;;;;23.14;100.00;99402.53;4996856;28;19936;-83
2023/08/31 10:44:41;;;;;;;;;;;;;;;23.20;100.00;99403.50;4996149;28;20020;-82
2023/08/31 10:47:07;;;;;;;;;;;;;;;23.26;100.00;99398.03;4995526;28;19922;-83
2023/08/31 10:49:33;;;;;;;;;;;;;;;23.33;100.00;99402.50;4994887;28;19958;-82
2023/08/31 10:52:18;;;;;;;;;;;;;;;23.35;100.00;99395.00;4994741;28;19922;-82
2023/08/31 10:54:43;;;;;;;;;;;;;;;23.37;100.00;99403.69;4994458;28;19972;-82
2023/08/31 10:57:12;;;;;;;;;;;;;;;23.37;100.00;99393.72;4994444;28;19922;-82
2023/08/31 10:59:51;;;;;;;;;;;;;;;23.44;100.00;99393.63;4995041;28;20256;-82
2023/08/31 11:02:36;;;;;;;;;;;;;;;23.51;100.00;99402.44;4994782;28;20396;-81
2023/08/31 11:05:10;;;;;;;;;;;;;;;23.55;100.00;99396.38;4995852;28;20291;-81
2023/08/31 11:07:36;;;;;;;;;;;;;;;23.60;100.00;99398.38;4977472;28;19972;-83
2023/08/31 11:10:10;;;;;;;;;;;;;;;23.66;100.00;99394.78;4994956;28;19917;-84
2023/08/31 11:12:35;;;;;;;;;;;;;;;23.79;100.00;99391.88;4997337;28;20011;-86
2023/08/31 11:15:00;;;;;;;;;;;;;;;23.89;100.00;99396.69;4989881;28;19938;-83
2023/08/31 11:17:26;;;;;;;;;;;;;;;23.93;100.00;99387.88;4996746;28;19936;-84
2023/08/31 11:19:52;;;;;;;;;;;;;;;23.97;100.00;99388.25;4995175;28;19917;-85
2023/08/31 11:22:18;;;;;;;;;;;;;;;24.05;100.00;99390.59;4997236;28;20383;-87
2023/08/31 11:24:43;;;;;;;;;;;;;;;24.16;100.00;99388.94;4994820;28;19930;-80
2023/08/31 11:27:10;;;;;;;;;;;;;;;24.21;100.00;99384.50;4992935;28;19928;-79
2023/08/31 11:29:42;;;;;;;;;;;;;;;24.29;100.00;99381.47;4994576;28;19922;-79
2023/08/31 11:32:08;;;;;;;;;;;;;;;24.37;100.00;99383.00;4993373;28;19925;-80
2023/08/31 11:34:33;;;;;;;;;;;;;;;24.46;100.00;99376.19;4992065;28;19922;-81
2023/08/31 11:36:59;;;;;;;;;;;;;;;24.56;100.00;99376.41;4992859;28;19929;-82
2023/08/31 11:39:24;;;;;;;;;;;;;;;24.64;100.00;99376.03;4992643;28;19933;-82
2023/08/31 11:41:49;;;;;;;;;;;;;;;24.74;100.00;99373.53;4993089;28;19999;-82
2023/08/31 11:44:16;;;;;;;;;;;;;;;24.88;100.00;99372.25;4992285;28;20017;-82
2023/08/31 11:46:43;;;;;;;;;;;;;;;24.95;100.00;99369.41;4992953;28;20017;-80
2023/08/31 11:49:09;;;;;;;;;;;;;;;25.00;100.00;99371.38;4992264;28;19926;-80
2023/08/31 11:51:34;;;;;;;;;;;;;;;25.06;100.00;99375.81;4992420;28;19921;-80
2023/08/31 11:54:03;;;;;;;;;;;;;;;25.12;100.00;99370.28;4992284;28;19922;-78
2023/08/31 11:56:40;;;;;;;;;;;;;;;25.22;100.00;99375.03;4988937;28;19933;-82
2023/08/31 11:59:09;;;;;;;;;;;;;;;25.32;100.00;99369.84;4993381;28;19969;-81
2023/08/31 12:01:37;;;;;;;;;;;;;;;25.40;100.00;99372.13;4975865;28;19926;-82
2023/08/31 12:04:09;;;;;;;;;;;;;;;25.47;100.00;99377.38;4991919;28;19961;-81
2023/08/31 12:06:34;;;;;;;;;;;;;;;25.44;100.00;99373.31;4993241;28;19922;-82
2023/08/31 12:09:00;;;;;;;;;;;;;;;25.39;100.00;99380.50;4992626;28;19945;-82
2023/08/31 12:11:26;;;;;;;;;;;;;;;25.31;100.00;99379.00;4994327;28;20004;-80
2023/08/31 12:13:51;;;;;;;;;;;;;;;25.27;100.00;99375.16;4993006;28;19941;-82
2023/08/31 12:16:17;;;;;;;;;;;;;;;25.34;100.00;99381.19;4995785;28;19922;-81
2023/08/31 12:18:43;;;;;;;;;;;;;;;25.34;100.00;99373.09;4992898;28;19929;-82
2023/08/31 12:21:08;;;;;;;;;;;;;;;25.33;100.00;99366.06;4992272;28;20413;-82
2023/08/31 12:23:34;;;;;;;;;;;;;;;25.43;100.00;99370.84;4992358;28;19926;-81
2023/08/31 12:26:00;;;;;;;;;;;;;;;25.67;100.00;99373.19;4994959;28;20025;-80
2023/08/31 12:28:25;;;;;;;;;;;;;;;25.81;100.00;99367.44;4996412;28;19917;-82
2023/08/31 12:30:52;;;;;;;;;;;;;;;25.80;100.00;99365.81;4992510;28;19922;-81
2023/08/31 12:33:19;;;;;;;;;;;;;;;25.83;100.00;99368.84;4979283;28;19922;-82